ADDS TAF Data INFO
IDs: Format: Raw Decoded Include METARs

Data at: 1647 UTC 26 Apr 2018

KEKN 261551Z AUTO 04005KT 10SM FEW033 12/03 A2995 RMK AO2 SLP147 T01220033 TSNO

KEKN 261526Z 2615/2712 VRB03KT P6SM SKC
  FM261600 31004KT P6SM FEW140
  FM270000 00000KT P6SM BKN070